1A4 weather

Logan Field
Samson, Alabama, United States

Public forecast

Using degrees Fahrenheit for public forecast. Weather courtesy of forecast.io.

METAR (pilot weather report)

Closest report is Florala Municipal Airport, 13.3 nm (24.7 km) WSW. Retrieved 2017/10/22 08:58 UTC (17 minutes ago):

K0J4 220858Z AUTO 08004KT 10SM CLR 18/16 A3013 RMK AO2 SLP200 T01780161 56014

TAF (pilot weather forecast)

Closest forecast is Cairns AAF (Fort Rucker) Air Field, 20.7 nm (38.3 km) ENE. Retrieved 2017/10/22 08:03 UTC (1 hour ago):

TAF KOZR 220800Z 2208/2314 10006KT 9999 SCT030 QNH3012INS BECMG 2214/2215 12012G20KT 9999 FEW015 BKN025 BKN150 QNH3008INS BECMG 2223/2224 12010KT 9999 BKN015 QNH3001INS BECMG 2306/2307 12009KT 8000 -SHRA BKN015 OVC150 QNH2998INS TEMPO 2307/2309 12010G15KT 4800 -TSRA BKN010CB TX28/2220Z TN18/2211Z